createdAt,value
2022-11-22T00:02:05.536Z,24.60
2022-11-22T00:04:37.166Z,24.60
2022-11-22T00:07:09.108Z,24.60
2022-11-22T00:09:40.451Z,24.60
2022-11-22T00:12:12.030Z,24.60
2022-11-22T00:14:45.811Z,24.60
2022-11-22T00:17:17.364Z,24.60
2022-11-22T00:19:49.652Z,24.60
2022-11-22T00:22:21.280Z,24.60
2022-11-22T00:24:53.369Z,24.60
2022-11-22T00:27:24.956Z,24.60
2022-11-22T00:29:58.973Z,24.60
2022-11-22T00:32:30.575Z,24.60
2022-11-22T00:35:01.819Z,24.60
2022-11-22T00:37:33.298Z,24.50
2022-11-22T00:40:04.793Z,24.60
2022-11-22T00:42:35.972Z,24.60
2022-11-22T00:45:10.669Z,24.60
2022-11-22T00:47:42.215Z,24.60
2022-11-22T00:50:13.718Z,24.60
2022-11-22T00:52:45.270Z,24.60
2022-11-22T00:55:16.539Z,24.60
2022-11-22T00:57:48.033Z,24.60
2022-11-22T01:00:22.410Z,24.60
2022-11-22T01:02:53.961Z,24.70
2022-11-22T01:05:25.285Z,24.60
2022-11-22T01:07:57.171Z,24.60
2022-11-22T01:10:28.439Z,24.60
2022-11-22T01:13:01.063Z,24.60
2022-11-22T01:15:34.931Z,24.60
2022-11-22T01:18:06.754Z,24.60
2022-11-22T01:20:38.113Z,24.60
2022-11-22T01:23:09.646Z,24.60
2022-11-22T01:25:40.981Z,24.50
2022-11-22T01:28:12.493Z,24.60
2022-11-22T01:30:47.949Z,24.50
2022-11-22T01:33:19.536Z,24.60
2022-11-22T01:35:50.981Z,24.60
2022-11-22T01:38:22.179Z,24.60
2022-11-22T01:40:53.392Z,24.60
2022-11-22T01:43:26.426Z,24.50
2022-11-22T01:46:01.791Z,24.60
2022-11-22T01:48:45.271Z,24.60
2022-11-22T01:51:23.584Z,24.60
2022-11-22T01:53:56.645Z,24.60
2022-11-22T01:56:28.946Z,24.50
2022-11-22T01:59:03.336Z,24.60
2022-11-22T02:01:38.047Z,24.60
2022-11-22T02:04:12.471Z,24.60
2022-11-22T02:06:52.956Z,24.60
2022-11-22T02:09:25.643Z,24.60
2022-11-22T02:12:00.604Z,24.60
2022-11-22T02:14:33.062Z,24.60
2022-11-22T02:17:06.957Z,24.50
2022-11-22T02:19:44.884Z,24.50
2022-11-22T02:22:28.341Z,24.60
2022-11-22T02:25:05.307Z,24.60
2022-11-22T02:27:39.279Z,24.60
2022-11-22T02:30:11.742Z,24.50
2022-11-22T02:32:43.012Z,24.50
2022-11-22T02:35:23.225Z,24.50
2022-11-22T02:37:59.235Z,24.60
2022-11-22T02:40:34.070Z,24.50
2022-11-22T02:43:11.002Z,24.60
2022-11-22T02:45:42.450Z,24.60
2022-11-22T02:48:15.993Z,24.50
2022-11-22T02:50:47.835Z,24.50
2022-11-22T02:53:18.984Z,24.50
2022-11-22T02:55:50.506Z,24.50
2022-11-22T02:58:24.291Z,24.60
2022-11-22T03:00:55.881Z,24.50
2022-11-22T03:03:27.223Z,24.50
2022-11-22T03:05:58.819Z,24.50
2022-11-22T03:08:30.039Z,24.50
2022-11-22T03:11:01.804Z,24.50
2022-11-22T03:13:36.090Z,24.50
2022-11-22T03:16:08.568Z,24.50
2022-11-22T03:18:40.860Z,24.50
2022-11-22T03:21:13.509Z,24.50
2022-11-22T03:23:45.177Z,24.60
2022-11-22T03:26:16.709Z,24.50
2022-11-22T03:28:50.485Z,24.50
2022-11-22T03:31:22.344Z,24.50
2022-11-22T03:33:53.655Z,24.50
2022-11-22T03:36:25.212Z,24.50
2022-11-22T03:38:56.441Z,24.50
2022-11-22T03:41:27.895Z,24.50
2022-11-22T03:44:01.689Z,24.50
2022-11-22T03:46:33.225Z,24.50
2022-11-22T03:49:04.369Z,24.50
2022-11-22T03:51:35.825Z,24.50
2022-11-22T03:54:07.274Z,24.50
2022-11-22T03:56:38.459Z,24.50
2022-11-22T03:59:12.148Z,24.50
2022-11-22T04:01:43.743Z,24.50
2022-11-22T04:04:15.062Z,24.60
2022-11-22T04:06:46.572Z,24.50
2022-11-22T04:09:17.817Z,24.50
2022-11-22T04:11:49.217Z,24.50
2022-11-22T04:14:35.463Z,24.50
2022-11-22T04:17:06.934Z,24.50
2022-11-22T04:19:38.467Z,24.50
2022-11-22T04:22:07.366Z,24.50
2022-11-22T04:24:50.909Z,24.50
2022-11-22T04:27:22.474Z,24.50
2022-11-22T04:29:56.485Z,24.50
2022-11-22T04:32:40.531Z,24.50
2022-11-22T04:35:12.099Z,24.50
2022-11-22T04:37:43.815Z,24.50
2022-11-22T04:40:15.241Z,24.50
2022-11-22T04:42:58.859Z,24.50
2022-11-22T04:45:32.784Z,24.50
2022-11-22T04:48:04.245Z,24.50
2022-11-22T04:50:48.363Z,24.50
2022-11-22T04:53:21.221Z,24.50
2022-11-22T04:55:52.509Z,24.50
2022-11-22T04:58:24.521Z,24.50
2022-11-22T05:00:58.362Z,24.50
2022-11-22T05:03:29.874Z,24.50
2022-11-22T05:06:04.883Z,24.50
2022-11-22T05:08:37.240Z,24.50
2022-11-22T05:11:08.630Z,24.50
2022-11-22T05:13:41.174Z,24.50
2022-11-22T05:16:15.462Z,24.40
2022-11-22T05:18:59.448Z,24.50
2022-11-22T05:21:33.439Z,24.50
2022-11-22T05:24:02.463Z,24.50
2022-11-22T05:26:36.235Z,24.50
2022-11-22T05:29:09.759Z,24.50
2022-11-22T05:31:48.345Z,24.50
2022-11-22T05:34:22.955Z,24.50
2022-11-22T05:36:54.163Z,24.50
2022-11-22T05:39:25.628Z,24.50
2022-11-22T05:41:59.899Z,24.50
2022-11-22T05:44:31.438Z,24.50
2022-11-22T05:47:05.722Z,24.50
2022-11-22T05:49:37.305Z,24.50
2022-11-22T05:52:09.002Z,24.50
2022-11-22T05:54:40.530Z,24.50
2022-11-22T05:57:11.690Z,24.40
2022-11-22T05:59:44.415Z,24.50
2022-11-22T06:02:18.649Z,24.50
2022-11-22T06:04:50.241Z,24.50
2022-11-22T06:07:21.765Z,24.50
2022-11-22T06:09:53.236Z,24.50
2022-11-22T06:12:24.482Z,24.50
2022-11-22T06:14:55.934Z,24.50
2022-11-22T06:17:29.750Z,24.50
2022-11-22T06:20:05.849Z,24.40
2022-11-22T06:22:37.945Z,24.50
2022-11-22T06:25:10.452Z,24.50
2022-11-22T06:27:41.713Z,24.50
2022-11-22T06:30:13.842Z,24.50
2022-11-22T06:32:48.249Z,24.50
2022-11-22T06:35:20.018Z,24.50
2022-11-22T06:37:57.498Z,24.50
2022-11-22T06:40:32.011Z,24.40
2022-11-22T06:43:03.235Z,24.50
2022-11-22T06:45:34.726Z,24.40
2022-11-22T06:48:09.125Z,24.40
2022-11-22T06:50:41.222Z,24.30
2022-11-22T06:53:32.440Z,24.30
2022-11-22T06:56:04.771Z,24.20
2022-11-22T06:58:36.475Z,24.20
2022-11-22T07:01:09.588Z,24.20
2022-11-22T07:03:44.775Z,24.10
2022-11-22T07:06:18.155Z,24.10
2022-11-22T07:08:49.907Z,24.10
2022-11-22T07:11:24.180Z,24.10
2022-11-22T07:13:58.095Z,24.10
2022-11-22T07:16:32.400Z,24.10
2022-11-22T07:19:06.455Z,24.10
2022-11-22T07:21:39.663Z,24.10
2022-11-22T07:24:11.749Z,24.20
2022-11-22T07:26:43.344Z,24.20
2022-11-22T07:29:14.647Z,24.30
2022-11-22T07:31:48.859Z,24.20
2022-11-22T07:34:22.599Z,24.20
2022-11-22T07:36:59.688Z,24.10
2022-11-22T07:39:33.089Z,24.00
2022-11-22T07:42:04.814Z,24.00
2022-11-22T07:44:35.916Z,24.00
2022-11-22T07:47:07.682Z,24.00
2022-11-22T07:49:41.976Z,24.00
2022-11-22T07:52:13.652Z,24.00
2022-11-22T07:54:44.804Z,24.00
2022-11-22T07:57:16.321Z,24.10
2022-11-22T07:59:47.438Z,24.20
2022-11-22T08:02:19.025Z,24.20
2022-11-22T08:04:52.928Z,24.30
2022-11-22T08:07:24.633Z,24.30
2022-11-22T08:09:55.809Z,24.40
2022-11-22T08:12:27.491Z,24.40
2022-11-22T08:14:58.713Z,24.40
2022-11-22T08:17:30.255Z,24.40
2022-11-22T08:20:04.020Z,24.30
2022-11-22T08:22:35.830Z,24.20
2022-11-22T08:25:12.694Z,24.10
2022-11-22T08:27:45.202Z,24.10
2022-11-22T08:30:16.602Z,24.10
2022-11-22T08:32:48.676Z,24.10
2022-11-22T08:35:22.508Z,24.20
2022-11-22T08:37:59.048Z,24.30
2022-11-22T08:40:30.262Z,24.30
2022-11-22T08:43:02.152Z,24.30
2022-11-22T08:45:33.236Z,24.30
2022-11-22T08:48:05.406Z,24.40
2022-11-22T08:50:39.953Z,24.30
2022-11-22T08:53:11.934Z,24.20
2022-11-22T08:55:43.232Z,24.00
2022-11-22T08:58:15.557Z,24.00
2022-11-22T09:00:47.856Z,24.00
2022-11-22T09:03:19.620Z,24.00
2022-11-22T09:08:55.385Z,23.90
2022-11-22T09:11:34.504Z,23.90
2022-11-22T09:14:06.515Z,23.80
2022-11-22T09:16:38.229Z,23.80
2022-11-22T09:19:10.030Z,23.80
2022-11-22T09:21:43.829Z,23.80
2022-11-22T09:24:15.624Z,23.90
2022-11-22T09:26:46.814Z,23.90
2022-11-22T13:52:01.925Z,24.00
2022-11-22T13:55:05.785Z,24.00
2022-11-22T13:57:42.285Z,24.00
2022-11-22T14:00:50.102Z,24.00
2022-11-22T14:06:28.671Z,23.90
2022-11-22T14:09:36.395Z,24.00
2022-11-22T14:12:30.531Z,24.00
2022-11-22T14:15:29.463Z,23.90
2022-11-22T14:18:16.722Z,23.90
2022-11-22T14:21:00.449Z,23.90
2022-11-22T14:24:17.773Z,23.90
2022-11-22T14:27:02.885Z,24.00
2022-11-22T14:30:03.764Z,23.90
2022-11-22T14:33:04.743Z,24.00
2022-11-22T14:35:38.639Z,23.90
2022-11-22T14:38:35.741Z,23.90
2022-11-22T14:41:37.383Z,23.90
2022-11-22T14:44:13.476Z,23.90
2022-11-22T14:46:53.970Z,23.90
2022-11-22T14:49:37.894Z,23.90
2022-11-22T14:52:21.126Z,23.90
2022-11-22T14:54:57.227Z,23.80
2022-11-22T14:57:32.055Z,23.80
2022-11-22T15:00:15.410Z,23.80
2022-11-22T15:03:24.883Z,23.80
2022-11-22T15:09:14.151Z,23.80
2022-11-22T15:12:40.765Z,24.00
2022-11-22T15:57:29.638Z,24.40
2022-11-22T16:00:01.804Z,24.40
2022-11-22T16:02:50.409Z,24.40
2022-11-22T16:06:08.153Z,24.40
2022-11-22T16:08:27.834Z,24.40
2022-11-22T16:11:04.389Z,24.40
2022-11-22T16:13:38.675Z,24.40
2022-11-22T16:16:21.647Z,24.40
2022-11-22T16:18:53.850Z,24.40
2022-11-22T16:21:30.543Z,24.40
2022-11-22T16:24:20.508Z,24.40
2022-11-22T16:26:59.590Z,24.40
2022-11-22T16:29:35.733Z,24.40
2022-11-22T16:32:12.934Z,24.40
2022-11-22T16:34:45.026Z,24.50
2022-11-22T16:37:34.668Z,24.50
2022-11-22T16:40:14.260Z,24.50
2022-11-22T16:42:46.765Z,24.50
2022-11-22T16:45:21.016Z,24.50
2022-11-22T16:48:24.103Z,24.50
2022-11-22T16:50:47.757Z,24.50
2022-11-22T16:53:19.534Z,24.50
2022-11-22T16:55:53.769Z,24.50
2022-11-22T16:58:26.661Z,24.50
2022-11-22T17:00:59.387Z,24.40
2022-11-22T17:03:33.949Z,24.40
2022-11-22T17:06:05.580Z,24.50
2022-11-22T17:08:36.880Z,24.50
2022-11-22T17:11:12.361Z,24.50
2022-11-22T17:13:43.956Z,24.50
2022-11-22T17:16:17.881Z,24.50
2022-11-22T17:18:50.984Z,24.50
2022-11-22T17:21:34.241Z,24.50
2022-11-22T17:24:16.372Z,24.50
2022-11-22T17:26:50.856Z,24.50
2022-11-22T17:29:49.373Z,24.50
2022-11-22T17:32:15.607Z,24.50
2022-11-22T17:34:47.372Z,24.50
2022-11-22T17:37:21.936Z,24.50
2022-11-22T17:39:54.624Z,24.50
2022-11-22T17:42:28.903Z,24.50
2022-11-22T17:45:00.724Z,24.50
2022-11-22T17:47:32.686Z,24.50
2022-11-22T17:50:04.810Z,24.50
2022-11-22T17:52:38.012Z,24.50
2022-11-22T17:55:14.234Z,24.50
2022-11-22T17:57:53.107Z,24.50
2022-11-22T18:00:30.289Z,24.50
2022-11-22T18:03:06.828Z,24.50
2022-11-22T18:05:39.567Z,24.50
2022-11-22T18:08:10.922Z,24.50
2022-11-22T18:10:42.386Z,24.60
2022-11-22T18:13:23.599Z,24.60
2022-11-22T18:16:00.077Z,24.50
2022-11-22T18:21:29.658Z,24.50
2022-11-22T18:24:02.293Z,24.50
2022-11-22T18:26:42.035Z,24.50
2022-11-22T18:32:09.778Z,24.50
2022-11-22T18:34:41.909Z,24.50
2022-11-22T18:37:13.512Z,24.50
2022-11-22T18:39:44.980Z,24.50
2022-11-22T18:42:19.602Z,24.50
2022-11-22T18:44:53.762Z,24.50
2022-11-22T18:47:25.223Z,24.50
2022-11-22T18:49:56.888Z,24.50
2022-11-22T18:52:28.090Z,24.50
2022-11-22T18:54:59.507Z,24.50
2022-11-22T18:57:30.817Z,24.50
2022-11-22T19:00:05.030Z,24.60
2022-11-22T19:02:36.804Z,24.50
2022-11-22T19:05:09.343Z,24.60
2022-11-22T19:07:40.371Z,24.50
2022-11-22T19:10:12.794Z,24.60
2022-11-22T19:12:44.339Z,24.50
2022-11-22T19:15:18.204Z,24.50
2022-11-22T19:17:49.925Z,24.60
2022-11-22T19:20:53.445Z,24.50
2022-11-22T19:23:13.094Z,24.60
2022-11-22T19:25:45.287Z,24.50
2022-11-22T19:28:16.851Z,24.50
2022-11-22T19:30:50.989Z,24.50
2022-11-22T19:33:22.632Z,24.60
2022-11-22T19:36:01.125Z,24.50
2022-11-22T19:38:32.662Z,24.50
2022-11-22T19:41:04.229Z,24.50
2022-11-22T19:43:35.529Z,24.50
2022-11-22T19:46:09.795Z,24.60
2022-11-22T19:48:46.946Z,24.50
2022-11-22T19:51:18.971Z,24.50
2022-11-22T19:53:53.506Z,24.60
2022-11-22T19:56:26.873Z,24.60
2022-11-22T19:58:58.730Z,24.60
2022-11-22T20:01:34.613Z,24.60
2022-11-22T20:04:08.073Z,24.60
2022-11-22T20:06:40.254Z,24.60
2022-11-22T20:09:12.685Z,24.60
2022-11-22T20:11:45.610Z,24.60
2022-11-22T20:14:17.291Z,24.60
2022-11-22T20:16:51.412Z,24.60
2022-11-22T20:19:22.787Z,24.60
2022-11-22T20:21:54.082Z,24.60
2022-11-22T20:24:25.800Z,24.50
2022-11-22T20:26:57.469Z,24.60
2022-11-22T20:29:28.812Z,24.60
2022-11-22T20:32:02.690Z,24.60
2022-11-22T20:34:35.481Z,24.60
2022-11-22T20:37:07.286Z,24.60
2022-11-22T20:39:38.756Z,24.60
2022-11-22T20:42:33.488Z,24.50
2022-11-22T20:45:01.209Z,24.50
2022-11-22T20:47:36.038Z,24.60
2022-11-22T20:50:07.609Z,24.60
2022-11-22T20:52:39.250Z,24.60
2022-11-22T20:55:11.270Z,24.60
2022-11-22T20:57:43.540Z,24.60
2022-11-22T21:00:16.307Z,24.60
2022-11-22T21:02:50.886Z,24.60
2022-11-22T21:05:22.171Z,24.60
2022-11-22T21:07:53.730Z,24.60
2022-11-22T21:10:25.083Z,24.60
2022-11-22T21:12:56.410Z,24.60
2022-11-22T21:15:27.615Z,24.60
2022-11-22T21:18:24.264Z,24.60
2022-11-22T21:20:55.977Z,24.60
2022-11-22T21:23:27.544Z,24.60
2022-11-22T21:25:58.787Z,24.60
2022-11-22T21:28:30.389Z,24.60
2022-11-22T21:31:01.628Z,24.70
2022-11-22T21:33:36.317Z,24.60
2022-11-22T21:36:09.752Z,24.60
2022-11-22T21:38:41.810Z,24.60
2022-11-22T21:44:09.055Z,24.60
2022-11-22T21:46:40.615Z,24.60
2022-11-22T21:49:14.781Z,24.60
2022-11-22T21:51:46.022Z,24.60
2022-11-22T21:54:17.692Z,24.60
2022-11-22T21:56:48.968Z,24.60
2022-11-22T21:59:20.342Z,24.60
2022-11-22T22:01:51.515Z,24.70
2022-11-22T22:04:26.008Z,24.70
2022-11-22T22:06:59.865Z,24.60
2022-11-22T22:09:31.670Z,24.60
2022-11-22T22:12:02.744Z,24.60
2022-11-22T22:14:34.283Z,24.60
2022-11-22T22:17:06.161Z,24.70
2022-11-22T22:19:41.487Z,24.60
2022-11-22T22:22:12.715Z,24.60
2022-11-22T22:24:44.365Z,24.60
2022-11-22T22:27:15.600Z,24.60
2022-11-22T22:29:47.165Z,24.60
2022-11-22T22:32:18.407Z,24.70
2022-11-22T22:34:52.552Z,24.60
2022-11-22T22:37:23.743Z,24.60
2022-11-22T22:39:55.682Z,24.70
2022-11-22T22:42:26.882Z,24.60
2022-11-22T22:44:58.515Z,24.60
2022-11-22T22:47:31.964Z,24.60
2022-11-22T22:50:06.181Z,24.60
2022-11-22T22:52:37.530Z,24.70
2022-11-22T22:55:09.831Z,24.60
2022-11-22T22:57:41.067Z,24.60
2022-11-22T23:00:13.729Z,24.60
2022-11-22T23:02:44.945Z,24.60
2022-11-22T23:05:19.405Z,24.60
2022-11-22T23:07:50.577Z,24.70
2022-11-22T23:10:22.270Z,24.60
2022-11-22T23:12:53.544Z,24.70
2022-11-22T23:15:44.125Z,24.60
2022-11-22T23:18:16.446Z,24.60
2022-11-22T23:20:50.551Z,24.60
2022-11-22T23:23:21.742Z,24.60
2022-11-22T23:25:53.232Z,24.60
2022-11-22T23:28:24.683Z,24.60
2022-11-22T23:30:58.031Z,24.60
2022-11-22T23:33:29.210Z,24.60
2022-11-22T23:36:10.478Z,24.60
2022-11-22T23:38:42.572Z,24.60
2022-11-22T23:41:15.608Z,24.60
2022-11-22T23:43:46.841Z,24.60
2022-11-22T23:46:18.758Z,24.60
2022-11-22T23:48:51.697Z,24.60
2022-11-22T23:51:26.512Z,24.60
2022-11-22T23:53:58.687Z,24.60
2022-11-22T23:56:31.447Z,24.60
2022-11-22T23:59:05.134Z,24.60
